首页
METAR-TAF:

METAR-TAF

机场 :

霍尼亞拉國際機場

霍尼亚拉, 瓜达尔卡纳尔岛, 所罗门群岛

纬度: 09-25S, 经度: 160-03E, 海拔: 8米

当前天气观测

该预报发布于30分钟前的20:00 UTC
风速3节,风向南转南东
温度 21°C
湿度 100%
气压 1012 hPa
能见度10公里或以上
少量云层高于1400英尺

METAR: AGGH 172000Z 16003KT 9999 FEW014 21/21 Q1012

时间: 07:30 (20:30 UTC)

预报

该预报发布于3小时和7分钟前的17:23 UTC
预报有效从17日的 18点(UTC)到 18日的 18点(UTC)
风速3节,风向多变
能见度10公里或以上
少量云层高于1500英尺
散云层高于10000英尺
从 17日的 2300点(UTC)
风速10节,风向东转东北
能见度10公里或以上
散云层高于2000英尺
从 18日的 0900点(UTC)
风速3节,风向多变
能見度: 1011
少量云层高于1700英尺

TAF: AGGH 171723Z 1718/1818 VRB03KT 9999 FEW015 SCT100 FM172300 07010KT 9999 SCT020 FM180900 VRB03KT 9999 FEW017 T 22 23 31 32 Q 1011 1013 1013 1011

超过4000个机场的气象观测和天气预报(METAR&TAF报告)。

可查询的气象台以黄色和红色小点在地图上表示。

将鼠标移到小点上方,可查看气象台名称。

然后点击查看天气观测和预报。

如需切换地图:点击带黑十字的绿色按钮放大地图;点击带横线的绿色按钮缩小地图;或者点击绿色箭头查看邻近地区的地图。


METAR-TAF: